Time;durP1;ratioP1;P1;durP2;ratioP2;P2;SDS_P1;SDS_P2;PMS_P1;PMS_P2;Temp;Humidity;BMP_temperature;BMP_pressure;BME280_temperature;BME280_humidity;BME280_pressure;Samples;Min_cycle;Max_cycle;Signal;HPM_P1;HPM_P2
2022/04/30 00:02:08;;;;;;;82.75;38.90;;;;;;;8.33;100.00;100211.31;4992515;28;20118;-52
2022/04/30 00:04:41;;;;;;;79.40;37.00;;;;;;;8.31;100.00;100202.72;4998186;28;20058;-53
2022/04/30 00:07:06;;;;;;;87.70;39.47;;;;;;;8.41;100.00;100203.16;4998489;28;20056;-54
2022/04/30 00:09:32;;;;;;;82.70;38.28;;;;;;;8.39;100.00;100199.84;4999596;28;20687;-53
2022/04/30 00:11:58;;;;;;;90.85;39.88;;;;;;;8.38;100.00;100208.84;5001672;28;20465;-52
2022/04/30 00:14:24;;;;;;;80.60;39.58;;;;;;;8.24;100.00;100203.69;5005850;28;20022;-53
2022/04/30 00:16:49;;;;;;;83.03;39.08;;;;;;;8.21;100.00;100208.44;5001734;28;20033;-52
2022/04/30 00:19:15;;;;;;;84.47;40.75;;;;;;;8.23;100.00;100202.88;5002341;28;20027;-53
2022/04/30 00:21:41;;;;;;;85.20;41.53;;;;;;;8.18;100.00;100205.34;5001612;28;20054;-55
2022/04/30 00:24:06;;;;;;;85.45;40.97;;;;;;;8.24;100.00;100201.03;4997761;28;20120;-53
2022/04/30 00:26:31;;;;;;;89.47;39.95;;;;;;;8.07;100.00;100203.28;5000645;28;20057;-55
2022/04/30 00:28:57;;;;;;;90.45;42.72;;;;;;;8.00;100.00;100195.25;5003531;28;20033;-51
2022/04/30 00:31:26;;;;;;;87.00;43.03;;;;;;;8.08;100.00;100196.91;5006464;28;20046;-53
2022/04/30 00:33:53;;;;;;;86.10;40.42;;;;;;;8.08;100.00;100187.03;4994770;28;20688;-53
2022/04/30 00:36:18;;;;;;;91.07;41.22;;;;;;;8.06;100.00;100194.41;4999994;28;20042;-54
2022/04/30 00:38:43;;;;;;;76.68;38.67;;;;;;;8.02;100.00;100192.38;5007391;28;20037;-53
2022/04/30 00:41:10;;;;;;;80.95;39.42;;;;;;;8.03;100.00;100189.50;5001971;28;20522;-53
2022/04/30 00:43:44;;;;;;;90.90;44.20;;;;;;;7.91;100.00;100185.75;4999691;28;20030;-53
2022/04/30 00:46:16;;;;;;;73.13;40.13;;;;;;;7.95;100.00;100193.16;4996815;28;20057;-53
2022/04/30 00:48:42;;;;;;;92.85;41.15;;;;;;;7.96;100.00;100194.00;4995833;28;20026;-51
2022/04/30 00:51:11;;;;;;;91.00;41.17;;;;;;;7.89;100.00;100188.66;5000622;28;20141;-54
2022/04/30 00:53:42;;;;;;;92.20;43.05;;;;;;;7.99;100.00;100190.94;5005817;28;20480;-50
2022/04/30 00:56:13;;;;;;;84.95;40.95;;;;;;;7.91;100.00;100189.28;5005757;28;20077;-51
2022/04/30 00:58:40;;;;;;;90.70;41.38;;;;;;;7.97;100.00;100191.13;5001673;28;20153;-50
2022/04/30 01:01:06;;;;;;;98.38;42.78;;;;;;;8.00;100.00;100190.72;4995127;28;20037;-53
2022/04/30 01:03:31;;;;;;;89.53;42.05;;;;;;;7.96;100.00;100189.50;4999197;28;20462;-53
2022/04/30 01:05:58;;;;;;;87.95;40.63;;;;;;;7.95;100.00;100179.81;5002310;28;20038;-52
2022/04/30 01:08:27;;;;;;;93.82;42.13;;;;;;;7.93;100.00;100187.22;5002256;28;20041;-52
2022/04/30 01:10:53;;;;;;;83.40;41.13;;;;;;;7.86;100.00;100189.06;4984435;28;20034;-53
2022/04/30 01:13:19;;;;;;;80.93;40.65;;;;;;;7.89;100.00;100188.66;5003755;28;20034;-50
2022/04/30 01:15:45;;;;;;;90.53;41.40;;;;;;;7.94;100.00;100183.53;5001528;28;20052;-52
2022/04/30 01:18:10;;;;;;;84.68;42.13;;;;;;;7.89;100.00;100188.66;4996083;28;20039;-50
2022/04/30 01:20:37;;;;;;;88.30;41.28;;;;;;;7.87;100.00;100177.34;4994046;28;20046;-52
2022/04/30 01:23:04;;;;;;;80.28;40.05;;;;;;;7.83;100.00;100175.28;4998404;28;20030;-52
2022/04/30 01:25:31;;;;;;;88.28;41.95;;;;;;;7.88;100.00;100176.31;4977783;28;20045;-53
2022/04/30 01:27:59;;;;;;;79.55;39.38;;;;;;;7.80;100.00;100173.03;5004551;28;20018;-51
2022/04/30 01:30:25;;;;;;;76.32;36.60;;;;;;;7.73;100.00;100170.31;5000369;28;20050;-51
2022/04/30 01:38:20;;;;;;;82.68;36.92;;;;;;;7.80;100.00;100178.34;4993751;28;20500;-53
2022/04/30 01:40:46;;;;;;;82.30;39.22;;;;;;;7.68;100.00;100172.78;5000513;28;20073;-53
2022/04/30 01:43:12;;;;;;;73.55;39.47;;;;;;;7.62;100.00;100166.41;4995698;28;20034;-53
2022/04/30 01:45:37;;;;;;;78.28;39.35;;;;;;;7.67;100.00;100168.47;4997129;28;20401;-52
2022/04/30 01:48:04;;;;;;;83.28;39.25;;;;;;;7.60;100.00;100163.09;5002521;28;20427;-51
2022/04/30 01:50:29;;;;;;;83.63;38.95;;;;;;;7.56;100.00;100170.69;4997341;28;20429;-53
2022/04/30 01:52:55;;;;;;;89.70;41.33;;;;;;;7.51;100.00;100165.13;5000814;28;20087;-53
2022/04/30 01:55:20;;;;;;;83.47;39.85;;;;;;;7.43;100.00;100159.94;4989322;28;20080;-52
2022/04/30 01:57:46;;;;;;;72.57;38.17;;;;;;;7.52;100.00;100166.78;5014124;28;20033;-52
2022/04/30 02:00:13;;;;;;;75.32;37.75;;;;;;;7.47;100.00;100163.88;5009538;28;20219;-52
2022/04/30 02:02:40;;;;;;;87.55;38.10;;;;;;;7.47;100.00;100158.53;4997093;28;20034;-50
2022/04/30 02:05:07;;;;;;;90.47;40.13;;;;;;;7.46;100.00;100161.41;4998497;28;20496;-50
2022/04/30 02:07:37;;;;;;;84.55;38.40;;;;;;;7.44;100.00;100161.63;4999996;28;20038;-51
2022/04/30 02:10:03;;;;;;;77.05;36.55;;;;;;;7.42;100.00;100150.31;4994218;28;20030;-52
2022/04/30 02:12:32;;;;;;;81.22;39.83;;;;;;;7.40;100.00;100157.69;4999527;28;20488;-53
2022/04/30 02:14:57;;;;;;;76.15;36.22;;;;;;;7.50;100.00;100157.31;5001140;28;20112;-52
2022/04/30 02:17:23;;;;;;;80.57;38.00;;;;;;;7.48;100.00;100154.03;5002742;28;20037;-53
2022/04/30 02:22:38;;;;;;;67.88;33.53;;;;;;;7.38;100.00;100138.38;4999737;28;20057;-50
2022/04/30 02:25:09;;;;;;;70.25;34.78;;;;;;;7.36;100.00;100145.75;4996429;28;20034;-50
2022/04/30 02:27:37;;;;;;;75.43;33.50;;;;;;;7.37;100.00;100136.75;5000093;28;20388;-51
2022/04/30 02:30:07;;;;;;;79.75;33.60;;;;;;;7.35;100.00;100126.28;4991012;28;20038;-53
2022/04/30 02:32:40;;;;;;;70.88;34.90;;;;;;;7.37;100.00;100136.75;4991350;28;20054;-53
2022/04/30 02:35:06;;;;;;;63.78;32.83;;;;;;;7.38;100.00;100126.91;5000892;28;20043;-51
2022/04/30 02:37:31;;;;;;;75.32;34.65;;;;;;;7.34;100.00;100131.81;4990395;28;20684;-50
2022/04/30 02:39:57;;;;;;;65.93;31.70;;;;;;;7.36;100.00;100135.09;5001454;28;20029;-50
2022/04/30 02:42:22;;;;;;;65.05;31.48;;;;;;;7.24;100.00;100131.34;4998244;28;20042;-51
2022/04/30 02:44:48;;;;;;;65.97;30.38;;;;;;;7.28;100.00;100127.28;5001896;28;20102;-53
2022/04/30 02:47:13;;;;;;;59.47;31.58;;;;;;;7.31;100.00;100121.53;4998830;28;20587;-55
2022/04/30 02:49:39;;;;;;;69.93;33.80;;;;;;;7.29;100.00;100124.41;5001968;28;20030;-53
2022/04/30 02:52:04;;;;;;;67.93;32.15;;;;;;;7.24;100.00;100126.00;4996658;28;20041;-50
2022/04/30 02:54:34;;;;;;;71.20;32.53;;;;;;;7.20;100.00;100128.25;4997912;28;20041;-55
2022/04/30 02:56:59;;;;;;;66.15;31.42;;;;;;;7.18;100.00;100124.97;4998452;28;20137;-51
2022/04/30 03:02:09;;;;;;;70.85;34.17;;;;;;;7.18;100.00;100126.81;4994645;28;21537;-49
2022/04/30 03:04:34;;;;;;;68.72;32.78;;;;;;;7.17;100.00;100120.66;4995925;28;20022;-53
2022/04/30 03:06:59;;;;;;;59.30;29.92;;;;;;;7.15;100.00;100128.03;4999259;28;20049;-52
2022/04/30 03:09:25;;;;;;;63.97;31.20;;;;;;;7.07;100.00;100131.69;4983679;28;20038;-54
2022/04/30 03:11:50;;;;;;;65.03;32.25;;;;;;;7.12;100.00;100129.25;4992265;28;20042;-51
2022/04/30 03:14:16;;;;;;;55.38;28.85;;;;;;;7.02;100.00;100128.81;4994275;28;20042;-54
2022/04/30 03:22:10;;;;;;;54.70;25.15;;;;;;;6.97;100.00;100123.25;4998366;28;20049;-53
2022/04/30 03:24:35;;;;;;;58.30;26.85;;;;;;;6.89;100.00;100123.41;5003211;28;20049;-54
2022/04/30 03:27:01;;;;;;;55.03;27.10;;;;;;;6.82;100.00;100127.88;4992658;28;20073;-51
2022/04/30 03:29:27;;;;;;;54.65;25.55;;;;;;;6.89;100.00;100126.06;4993286;28;20037;-53
2022/04/30 03:31:52;;;;;;;57.05;27.30;;;;;;;6.83;100.00;100116.19;4987818;28;20046;-52
2022/04/30 03:34:18;;;;;;;46.47;23.45;;;;;;;6.89;100.00;100123.41;4998209;28;20468;-54
2022/04/30 03:36:43;;;;;;;49.25;25.02;;;;;;;6.81;99.31;100118.22;4995890;28;20417;-55
2022/04/30 03:39:09;;;;;;;48.95;22.65;;;;;;;6.69;98.70;100113.44;4996322;28;20042;-53
2022/04/30 03:41:35;;;;;;;48.05;23.23;;;;;;;6.75;98.42;100114.50;4996432;28;20041;-55
2022/04/30 03:44:01;;;;;;;55.25;24.02;;;;;;;6.63;98.29;100113.41;5008000;28;20030;-52
2022/04/30 03:46:27;;;;;;;49.80;23.63;;;;;;;6.63;98.08;100114.22;5000678;28;20668;-52
2022/04/30 03:48:53;;;;;;;50.65;23.25;;;;;;;6.68;98.28;100109.13;5001255;28;20037;-54
2022/04/30 03:51:20;;;;;;;49.70;22.90;;;;;;;6.65;98.23;100117.50;5001679;28;20448;-54
2022/04/30 03:53:46;;;;;;;51.63;22.85;;;;;;;6.77;98.59;100114.31;4997543;28;20033;-55
2022/04/30 03:56:12;;;;;;;53.35;24.98;;;;;;;6.72;98.00;100117.56;4998925;28;20046;-54
2022/04/30 03:58:37;;;;;;;47.97;22.65;;;;;;;6.65;97.70;100112.19;5000838;28;20469;-54
2022/04/30 04:01:02;;;;;;;50.15;21.48;;;;;;;6.67;95.97;100110.16;5002988;28;20112;-53
2022/04/30 04:03:28;;;;;;;44.50;22.15;;;;;;;6.52;97.47;100109.44;5000244;28;20088;-53
2022/04/30 04:05:53;;;;;;;44.85;23.67;;;;;;;6.58;97.42;100113.16;5001172;28;20056;-54
2022/04/30 04:08:20;;;;;;;45.95;22.67;;;;;;;6.50;97.38;100119.47;5001481;28;20037;-52
2022/04/30 04:10:46;;;;;;;45.45;23.20;;;;;;;6.48;97.26;100119.63;5007921;28;20034;-54
2022/04/30 04:18:39;;;;;;;47.63;23.08;;;;;;;6.49;96.43;100123.16;5005515;28;20105;-53
2022/04/30 04:21:05;;;;;;;48.40;23.48;;;;;;;6.43;95.93;100127.38;5001313;28;20120;-53
2022/04/30 04:25:58;;;;;;;45.05;21.95;;;;;;;6.35;96.94;100126.72;4996403;28;20151;-51
2022/04/30 04:26:19;;;;;;;46.17;22.40;;;;;;;6.39;96.85;100139.47;4999778;28;20041;-52
2022/04/30 04:28:45;;;;;;;39.97;22.85;;;;;;;6.31;97.19;100131.59;5008485;28;21287;-51
2022/04/30 04:31:10;;;;;;;42.00;22.85;;;;;;;6.31;96.54;100131.59;5002041;28;20133;-52
2022/04/30 04:33:35;;;;;;;49.95;22.85;;;;;;;6.34;96.29;100135.72;5003664;28;20482;-53
2022/04/30 04:36:01;;;;;;;42.10;21.50;;;;;;;6.28;96.39;100136.50;5005629;28;20477;-53
2022/04/30 04:38:26;;;;;;;41.72;21.10;;;;;;;6.31;96.27;100130.78;4999307;28;20036;-52
2022/04/30 04:40:52;;;;;;;48.78;22.67;;;;;;;6.35;95.80;100140.03;5004423;28;20058;-53
2022/04/30 04:43:17;;;;;;;44.40;21.45;;;;;;;6.26;94.88;100137.53;4998483;28;20019;-53
2022/04/30 04:45:43;;;;;;;44.10;21.75;;;;;;;6.30;96.11;100134.47;5000779;28;20033;-52
2022/04/30 04:48:08;;;;;;;45.65;21.58;;;;;;;6.23;96.13;100139.72;4993679;28;20093;-51
2022/04/30 04:50:34;;;;;;;46.47;21.75;;;;;;;6.20;95.27;100138.28;4998240;28;20145;-51
2022/04/30 04:52:59;;;;;;;43.88;21.25;;;;;;;6.30;96.46;100145.94;4995304;28;20044;-52
2022/04/30 04:55:25;;;;;;;48.15;19.38;;;;;;;6.26;94.02;100145.50;4999751;28;20689;-53
2022/04/30 04:57:50;;;;;;;39.30;21.40;;;;;;;6.28;95.71;100152.47;4992908;28;20042;-53
2022/04/30 05:00:15;;;;;;;40.03;20.70;;;;;;;6.13;95.10;100145.38;4993582;28;20036;-53
2022/04/30 05:02:41;;;;;;;43.38;21.13;;;;;;;6.31;95.46;100154.75;5001043;28;20025;-53
2022/04/30 05:05:07;;;;;;;41.33;21.20;;;;;;;6.21;94.71;100163.88;4996243;28;20053;-52
2022/04/30 05:07:32;;;;;;;50.03;20.25;;;;;;;6.15;94.55;100159.31;4992565;28;20801;-54
2022/04/30 05:09:58;;;;;;;42.00;20.95;;;;;;;6.18;95.47;100166.91;4991004;28;20042;-54
2022/04/30 05:12:23;;;;;;;37.33;19.73;;;;;;;6.23;95.47;100166.34;4995249;28;20041;-53
2022/04/30 05:14:52;;;;;;;42.25;21.75;;;;;;;6.31;93.70;100157.41;4992527;28;20493;-54
2022/04/30 05:17:17;;;;;;;41.95;21.13;;;;;;;6.32;94.16;100167.06;4996132;28;20136;-53
2022/04/30 05:19:43;;;;;;;39.20;20.67;;;;;;;6.39;93.04;100178.56;4994414;28;20531;-54
2022/04/30 05:22:08;;;;;;;46.67;21.60;;;;;;;6.25;93.93;100175.78;4993582;28;20042;-54
2022/04/30 05:24:34;;;;;;;44.95;21.88;;;;;;;6.33;93.16;100176.69;5004059;28;20069;-51
2022/04/30 05:27:01;;;;;;;38.30;22.23;;;;;;;6.45;93.05;100172.47;5001462;28;20057;-53
2022/04/30 05:29:27;;;;;;;33.05;17.33;;;;;;;6.36;91.42;100177.09;5000371;28;20026;-52
2022/04/30 05:31:52;;;;;;;43.28;21.35;;;;;;;6.33;92.26;100176.69;4996386;28;20053;-52
2022/04/30 05:34:18;;;;;;;43.03;21.00;;;;;;;6.60;92.20;100183.88;5003343;28;20034;-54
2022/04/30 05:36:43;;;;;;;42.10;19.05;;;;;;;6.65;91.33;100186.78;4997322;28;20038;-53
2022/04/30 05:39:09;;;;;;;39.40;19.80;;;;;;;6.25;90.60;100186.44;5001138;28;20616;-53
2022/04/30 05:41:34;;;;;;;38.08;19.48;;;;;;;6.50;90.50;100183.38;4997962;28;20050;-55
2022/04/30 05:43:59;;;;;;;46.20;19.63;;;;;;;6.64;90.71;100179.81;5001688;28;20045;-53
2022/04/30 05:46:25;;;;;;;39.05;20.30;;;;;;;6.76;91.10;100184.59;4995561;28;20042;-51
2022/04/30 05:48:50;;;;;;;38.33;19.80;;;;;;;6.99;89.61;100189.66;5005133;28;20029;-53
2022/04/30 05:51:16;;;;;;;40.38;20.42;;;;;;;6.97;88.70;100184.53;4999235;28;20042;-53
2022/04/30 05:53:41;;;;;;;41.70;20.23;;;;;;;7.32;87.81;100181.88;5003828;28;20099;-52
2022/04/30 05:56:07;;;;;;;38.05;18.33;;;;;;;7.19;87.39;100179.13;4998233;28;20037;-51
2022/04/30 05:58:32;;;;;;;36.47;20.45;;;;;;;7.18;88.09;100182.81;5004623;28;20042;-54
2022/04/30 06:00:58;;;;;;;44.53;19.75;;;;;;;7.34;86.92;100187.84;5005860;28;20061;-51
2022/04/30 06:03:23;;;;;;;49.50;20.73;;;;;;;7.26;87.39;100188.81;5019195;28;20030;-54
2022/04/30 06:05:49;;;;;;;44.50;19.58;;;;;;;7.69;85.14;100193.09;5005033;28;20053;-54
2022/04/30 06:08:14;;;;;;;37.00;18.58;;;;;;;7.54;86.13;100185.25;5000229;28;20030;-52
2022/04/30 06:10:39;;;;;;;34.78;18.98;;;;;;;7.26;86.74;100191.50;4998672;28;20696;-51
2022/04/30 06:13:05;;;;;;;34.65;19.15;;;;;;;8.19;84.49;100199.81;4991192;28;20035;-53
2022/04/30 06:15:30;;;;;;;33.47;17.23;;;;;;;7.68;83.75;100199.44;4997472;28;20120;-54
2022/04/30 06:17:56;;;;;;;64.90;20.60;;;;;;;7.35;85.84;100192.13;4994531;28;20380;-52
2022/04/30 06:20:21;;;;;;;34.70;19.38;;;;;;;7.31;86.84;100196.19;4989277;28;20050;-52
2022/04/30 06:22:47;;;;;;;42.22;20.35;;;;;;;7.41;88.45;100201.19;4995582;28;20099;-54
2022/04/30 06:25:12;;;;;;;34.67;19.63;;;;;;;7.30;86.37;100205.25;4991618;28;20031;-54
2022/04/30 06:27:38;;;;;;;33.28;20.42;;;;;;;6.75;87.57;100205.09;4991520;28;20129;-53
2022/04/30 06:30:04;;;;;;;41.05;23.05;;;;;;;6.74;88.24;100205.28;4994309;28;20421;-54
2022/04/30 06:32:30;;;;;;;39.88;21.35;;;;;;;7.02;88.04;100208.78;5004594;28;20149;-51
2022/04/30 06:34:55;;;;;;;38.92;21.83;;;;;;;6.91;88.58;100207.47;4988932;28;20029;-54
2022/04/30 06:37:21;;;;;;;41.15;21.42;;;;;;;7.08;87.71;100215.16;4995969;28;20034;-53
2022/04/30 06:39:46;;;;;;;50.50;23.85;;;;;;;7.04;87.36;100217.41;5001758;28;20084;-52
2022/04/30 06:42:14;;;;;;;39.38;21.60;;;;;;;7.20;86.50;100220.78;5000933;28;20460;-53
2022/04/30 06:44:40;;;;;;;42.50;20.23;;;;;;;6.89;86.23;100214.84;4993891;28;20040;-51
2022/04/30 06:47:05;;;;;;;36.80;20.17;;;;;;;8.05;83.80;100222.16;4999293;28;20033;-53
2022/04/30 06:49:33;;;;;;;38.75;20.95;;;;;;;8.33;81.69;100213.16;4995584;28;20401;-51
2022/04/30 06:51:59;;;;;;;37.97;21.35;;;;;;;7.96;82.83;100216.19;4996944;28;20038;-51
2022/04/30 06:57:09;;;;;;;37.40;19.10;;;;;;;8.17;81.23;100227.75;4997640;28;20048;-53
2022/04/30 06:59:39;;;;;;;37.58;20.40;;;;;;;8.56;81.39;100213.66;4992887;28;20038;-51
2022/04/30 07:02:12;;;;;;;33.40;18.35;;;;;;;8.43;80.19;100216.28;4994495;28;20034;-54
2022/04/30 07:04:39;;;;;;;35.47;19.33;;;;;;;8.21;81.29;100223.63;5009450;28;20097;-55
2022/04/30 07:07:04;;;;;;;36.45;19.33;;;;;;;8.75;82.82;100217.34;5006921;28;20045;-52
2022/04/30 07:09:32;;;;;;;31.17;15.60;;;;;;;8.12;79.70;100224.84;4993821;28;20037;-53
2022/04/30 07:11:59;;;;;;;33.15;18.92;;;;;;;8.00;82.13;100225.41;4992125;28;20042;-54
2022/04/30 07:14:24;;;;;;;37.45;17.98;;;;;;;8.00;81.15;100228.09;4989295;28;20111;-53
2022/04/30 07:16:50;;;;;;;25.50;15.60;;;;;;;8.00;78.77;100227.28;4986517;28;20038;-53
2022/04/30 07:19:15;;;;;;;32.05;19.50;;;;;;;7.58;81.76;100229.16;4988984;28;20198;-54
2022/04/30 07:21:41;;;;;;;30.67;17.15;;;;;;;7.40;82.28;100229.69;4988235;28;20042;-51
2022/04/30 07:24:06;;;;;;;28.25;16.48;;;;;;;7.42;82.95;100234.84;4991822;28;20030;-53
2022/04/30 07:26:32;;;;;;;31.38;17.20;;;;;;;7.53;82.44;100240.44;4992338;28;20069;-54
2022/04/30 07:28:57;;;;;;;30.35;16.83;;;;;;;7.28;83.75;100244.59;4995940;28;20022;-56
2022/04/30 07:31:23;;;;;;;30.80;18.67;;;;;;;7.06;84.36;100247.34;4974717;28;20053;-52
2022/04/30 07:33:51;;;;;;;30.83;18.48;;;;;;;7.06;84.56;100246.50;4988408;28;20026;-54
2022/04/30 07:36:17;;;;;;;33.20;17.60;;;;;;;7.17;84.80;100235.31;4988339;28;20062;-55
2022/04/30 07:38:42;;;;;;;31.85;16.17;;;;;;;7.16;83.93;100240.84;4992507;28;20025;-53
2022/04/30 07:41:08;;;;;;;33.40;18.00;;;;;;;7.24;83.81;100240.66;4985800;28;20042;-53
2022/04/30 07:43:33;;;;;;;29.98;17.55;;;;;;;7.45;83.93;100245.94;4988309;28;20022;-52
2022/04/30 07:45:58;;;;;;;34.97;17.50;;;;;;;7.32;83.05;100243.22;4993396;28;20035;-53
2022/04/30 07:48:24;;;;;;;30.27;17.58;;;;;;;7.24;83.83;100243.34;4993483;28;20033;-53
2022/04/30 07:50:49;;;;;;;36.90;18.30;;;;;;;6.88;83.28;100258.47;4994109;28;20042;-51
2022/04/30 07:53:15;;;;;;;36.58;17.15;;;;;;;7.15;83.27;100245.34;4990467;28;20475;-53
2022/04/30 07:55:44;;;;;;;31.67;17.58;;;;;;;7.09;82.21;100244.28;4991334;28;20057;-51
2022/04/30 07:58:09;;;;;;;35.80;18.75;;;;;;;7.31;83.14;100250.38;4991493;28;20061;-53
2022/04/30 08:00:35;;;;;;;34.97;18.45;;;;;;;7.51;82.69;100246.97;4985678;28;20041;-52
2022/04/30 08:03:00;;;;;;;30.00;18.98;;;;;;;7.27;82.18;100264.31;4992116;28;20053;-53
2022/04/30 08:05:26;;;;;;;34.22;19.75;;;;;;;7.15;81.88;100249.88;4985822;28;20081;-51
2022/04/30 08:07:51;;;;;;;47.67;26.00;;;;;;;7.26;82.60;100262.63;4994383;28;20028;-53
2022/04/30 08:10:17;;;;;;;37.58;20.77;;;;;;;7.04;82.28;100265.38;4985710;28;20284;-53
2022/04/30 08:12:42;;;;;;;57.67;26.20;;;;;;;7.34;82.18;100260.66;4988559;28;20026;-54
2022/04/30 08:15:08;;;;;;;31.02;18.75;;;;;;;7.13;81.40;100260.72;4990648;28;20381;-52
2022/04/30 08:17:34;;;;;;;34.85;18.95;;;;;;;7.26;81.18;100251.97;4988214;28;20080;-53
2022/04/30 08:19:59;;;;;;;34.03;19.92;;;;;;;7.56;81.07;100266.75;4986946;28;20067;-52
2022/04/30 08:22:24;;;;;;;38.22;19.23;;;;;;;7.46;79.69;100268.09;4985309;28;20039;-50
2022/04/30 08:24:50;;;;;;;33.80;21.30;;;;;;;7.51;81.11;100255.84;4990909;28;20421;-53
2022/04/30 08:27:15;;;;;;;34.75;17.73;;;;;;;7.82;79.13;100256.38;4995041;28;20038;-55
2022/04/30 08:29:41;;;;;;;38.85;21.23;;;;;;;8.20;78.85;100256.69;4998890;28;20515;-52
2022/04/30 08:32:06;;;;;;;29.45;17.95;;;;;;;8.39;77.49;100255.97;4997820;28;20046;-53
2022/04/30 08:34:32;;;;;;;32.95;17.90;;;;;;;8.54;76.73;100258.44;4995797;28;20030;-51
2022/04/30 08:36:57;;;;;;;32.00;19.15;;;;;;;8.78;76.37;100249.00;4996781;28;20093;-50
2022/04/30 08:39:23;;;;;;;35.20;19.02;;;;;;;8.68;77.40;100256.59;4989411;28;20118;-54
2022/04/30 08:41:48;;;;;;;33.92;21.52;;;;;;;8.53;76.75;100264.81;4995214;28;20393;-49
2022/04/30 08:44:17;;;;;;;34.33;20.27;;;;;;;8.84;76.02;100256.19;4995162;28;20433;-52
2022/04/30 08:46:43;;;;;;;39.08;20.90;;;;;;;8.71;75.65;100250.00;4987821;28;20045;-52
2022/04/30 08:49:09;;;;;;;31.10;20.20;;;;;;;8.75;76.17;100262.78;4987699;28;20347;-51
2022/04/30 08:51:34;;;;;;;32.17;20.50;;;;;;;8.29;76.64;100268.03;4993726;28;20046;-51
2022/04/30 08:54:00;;;;;;;32.67;17.30;;;;;;;8.13;76.00;100269.22;4973144;28;20034;-52
2022/04/30 08:56:25;;;;;;;33.60;20.58;;;;;;;8.12;76.54;100268.41;4991726;28;20080;-51
2022/04/30 08:58:51;;;;;;;33.75;20.48;;;;;;;8.10;76.19;100274.97;4995340;28;20034;-53
2022/04/30 09:01:17;;;;;;;33.05;21.08;;;;;;;8.13;77.50;100271.88;4992864;28;20408;-52
2022/04/30 09:03:45;;;;;;;36.85;21.85;;;;;;;8.39;75.97;100263.13;4987861;28;20034;-52
2022/04/30 09:06:18;;;;;;;34.65;20.88;;;;;;;8.25;76.36;100264.13;4993436;28;20042;-51
2022/04/30 09:08:53;;;;;;;37.60;19.92;;;;;;;8.43;74.59;100264.38;4996774;28;20492;-51
2022/04/30 09:11:27;;;;;;;33.03;20.67;;;;;;;8.69;74.17;100268.13;4991350;28;20074;-52
2022/04/30 09:13:53;;;;;;;31.15;19.10;;;;;;;8.72;73.35;100254.34;4996164;28;20026;-53
2022/04/30 09:16:23;;;;;;;29.13;18.83;;;;;;;8.52;73.71;100262.34;4987942;28;20089;-51
2022/04/30 09:18:49;;;;;;;28.95;18.40;;;;;;;8.69;73.60;100254.78;4988944;28;20018;-53
2022/04/30 09:21:15;;;;;;;37.05;21.38;;;;;;;8.34;74.97;100261.06;4988269;28;20040;-52
2022/04/30 09:23:40;;;;;;;30.20;19.48;;;;;;;8.50;73.76;100251.03;4992325;28;20026;-51
2022/04/30 09:26:06;;;;;;;33.40;21.02;;;;;;;8.67;72.72;100249.63;4990542;28;20095;-53
2022/04/30 09:28:38;;;;;;;28.30;18.42;;;;;;;8.69;73.82;100258.25;4999325;28;20022;-53
2022/04/30 09:31:13;;;;;;;27.98;16.70;;;;;;;9.09;72.51;100266.28;4991282;28;20575;-51
2022/04/30 09:37:41;;;;;;;25.42;16.08;;;;;;;9.33;70.09;100263.97;4993148;28;20037;-51
2022/04/30 09:39:33;;;;;;;30.75;16.08;;;;;;;9.24;70.48;100261.50;4991860;28;20033;-52
2022/04/30 09:42:02;;;;;;;24.23;15.40;;;;;;;9.19;72.43;100264.00;4992766;28;20361;-52
2022/04/30 09:44:29;;;;;;;25.23;14.90;;;;;;;9.49;70.01;100263.53;4996134;28;20137;-52
2022/04/30 09:46:55;;;;;;;24.20;15.70;;;;;;;9.66;69.44;100254.00;4987642;28;20041;-53
2022/04/30 09:54:51;;;;;;;22.80;13.02;;;;;;;9.46;66.25;100251.38;4991716;28;20045;-52
2022/04/30 09:57:17;;;;;;;26.92;14.10;;;;;;;9.85;67.24;100256.81;4991241;28;20069;-53
2022/04/30 09:59:43;;;;;;;21.30;13.38;;;;;;;9.58;67.37;100248.03;4954292;28;20044;-53
2022/04/30 10:02:09;;;;;;;22.27;12.73;;;;;;;9.99;66.87;100253.03;4988983;28;20042;-54
2022/04/30 10:04:36;;;;;;;19.80;12.68;;;;;;;9.94;67.91;100250.19;4996331;28;20408;-52
2022/04/30 10:07:03;;;;;;;15.98;10.25;;;;;;;9.81;66.69;100250.22;4989319;28;20521;-51
2022/04/30 10:09:36;;;;;;;19.00;12.40;;;;;;;10.21;65.84;100255.38;4995072;28;20029;-52
2022/04/30 10:12:11;;;;;;;19.60;12.05;;;;;;;10.82;63.05;100241.38;4988558;28;20049;-54
2022/04/30 10:14:48;;;;;;;18.58;11.25;;;;;;;10.09;64.67;100242.69;4984418;28;20141;-52
2022/04/30 10:17:17;;;;;;;17.13;11.18;;;;;;;10.43;65.79;100242.50;4991031;28;20038;-54
2022/04/30 10:20:07;;;;;;;21.98;11.80;;;;;;;11.02;63.40;100239.34;4990060;28;20149;-52
2022/04/30 10:22:32;;;;;;;20.27;11.50;;;;;;;10.68;62.44;100250.56;4983293;28;20050;-53
2022/04/30 10:24:58;;;;;;;20.30;11.55;;;;;;;10.83;63.20;100234.16;4971714;28;20057;-52
2022/04/30 10:27:25;;;;;;;20.67;11.65;;;;;;;10.76;62.78;100236.91;4991897;28;20061;-55
2022/04/30 10:29:59;;;;;;;16.42;10.18;;;;;;;11.10;61.69;100238.25;4989668;28;20461;-52
2022/04/30 10:32:26;;;;;;;20.73;10.43;;;;;;;10.32;62.79;100227.94;4988721;28;20122;-52
2022/04/30 10:34:52;;;;;;;18.63;10.77;;;;;;;10.67;63.50;100232.84;4987786;28;20037;-53
2022/04/30 10:37:32;;;;;;;16.92;9.65;;;;;;;11.21;61.27;100229.47;4988788;28;21371;-51
2022/04/30 10:39:59;;;;;;;18.02;9.60;;;;;;;10.92;62.95;100224.81;4985682;28;20026;-53
2022/04/30 10:42:39;;;;;;;19.23;9.98;;;;;;;11.28;62.16;100224.03;4985950;28;20548;-51
2022/04/30 10:45:05;;;;;;;;;;;;;;;11.02;63.52;100217.06;4994234;28;20348;-55
2022/04/30 10:47:30;;;;;;;16.65;10.43;;;;;;;11.51;62.81;100222.56;4995367;28;19932;-51
2022/04/30 10:49:56;;;;;;;13.10;8.70;;;;;;;11.66;61.54;100226.50;4990498;28;20462;-54
2022/04/30 10:52:24;;;;;;;17.75;9.77;;;;;;;12.43;58.56;100219.69;4995046;28;20038;-53
2022/04/30 10:54:50;;;;;;;15.82;9.57;;;;;;;11.37;59.63;100205.78;5003217;28;20108;-55
2022/04/30 10:57:15;;;;;;;13.70;8.55;;;;;;;11.67;58.10;100213.88;4988712;28;20507;-51
2022/04/30 10:59:41;;;;;;;15.50;10.18;;;;;;;11.82;59.79;100208.13;4985892;28;20092;-51
2022/04/30 11:02:09;;;;;;;17.73;9.57;;;;;;;12.29;59.23;100211.81;4988256;28;20065;-54
2022/04/30 11:04:35;;;;;;;15.27;10.68;;;;;;;12.34;58.17;100207.66;4987669;28;20026;-49
2022/04/30 11:07:00;;;;;;;16.83;11.65;;;;;;;12.24;59.02;100208.19;4996221;28;20484;-53
2022/04/30 11:09:26;;;;;;;17.30;11.68;;;;;;;11.72;59.99;100200.59;4984449;28;20047;-52
2022/04/30 11:11:51;;;;;;;18.90;10.80;;;;;;;12.31;59.00;100206.25;4986092;28;20053;-49
2022/04/30 11:14:17;;;;;;;16.02;10.45;;;;;;;12.46;58.53;100197.75;4993776;28;20026;-53
2022/04/30 11:16:46;;;;;;;17.02;9.75;;;;;;;12.58;57.23;100197.72;4986236;28;20049;-50
2022/04/30 11:19:13;;;;;;;19.48;10.13;;;;;;;13.89;56.22;100186.59;4994927;28;20058;-53
2022/04/30 11:21:42;;;;;;;16.50;10.05;;;;;;;13.43;57.14;100185.69;4986271;28;20046;-52
2022/04/30 11:24:08;;;;;;;21.40;10.80;;;;;;;14.19;55.07;100175.56;4996134;28;20034;-53
2022/04/30 11:26:39;;;;;;;12.70;8.70;;;;;;;13.09;54.87;100186.28;4991226;28;20138;-52
2022/04/30 11:29:12;;;;;;;128.45;24.92;;;;;;;13.58;54.20;100172.53;4985833;28;20035;-52
2022/04/30 11:31:37;;;;;;;20.13;12.52;;;;;;;12.99;56.00;100178.00;4988602;28;20062;-50
2022/04/30 11:34:17;;;;;;;23.25;12.07;;;;;;;13.10;55.73;100171.81;4992898;28;20046;-54
2022/04/30 11:36:49;;;;;;;18.97;10.83;;;;;;;13.25;55.85;100171.28;4994564;28;20042;-51
2022/04/30 11:39:14;;;;;;;18.52;11.10;;;;;;;13.71;54.90;100171.44;4994068;28;20053;-51
2022/04/30 11:41:44;;;;;;;21.73;13.45;;;;;;;13.27;56.59;100171.09;4988970;28;20081;-55
2022/04/30 11:44:14;;;;;;;14.57;8.68;;;;;;;13.03;55.55;100165.72;4993194;28;20081;-52
2022/04/30 11:46:40;;;;;;;21.63;9.93;;;;;;;13.17;55.88;100171.66;4985811;28;20077;-51